Terminal Aerodrome Forecast
Issued by NWS

Home | Current Version | Previous Version | Text Only | Print | Product List | Glossary On
Versions: 1 2 3 4 5 6 7 8 9 10 11 12 13 14 15 16 17 18 19 20 21 22 23 24 25 26
000
FTUS45 KVEF 160520
TAFBIH
TAF
KBIH 160520Z 1606/1706 34007KT P6SM FEW250
     FM161600 VRB06KT P6SM FEW120 SCT250
     FM162200 16012G20KT P6SM FEW120 SCT250
     FM170300 35010KT P6SM SCT250=

USA.gov is the U.S. government's official web portal to all federal, state and local government web resources and services.